Time,TemperatureF,DewpointF,PressureIn,WindDirection,WindDirectionDegrees,WindSpeedMPH,WindSpeedGustMPH,Humidity,HourlyPrecipIn,Conditions,Clouds,dailyrainin,SolarRadiationWatts/m^2,SoftwareType,DateUTC
2013-03-27 00:12:00,29.0,25.0,-100.00,ENE,62,0.0,0.0,83,0.00,,,0.01,0.000000,,2013-03-27 06:12:00,
2013-03-27 00:22:00,29.0,25.0,-100.00,ENE,62,0.0,0.0,83,0.00,,,0.01,0.000000,,2013-03-27 06:22:00,
2013-03-27 00:32:00,29.0,25.0,-100.00,ENE,62,0.0,0.0,83,0.00,,,0.01,0.000000,,2013-03-27 06:32:00,
2013-03-27 00:42:00,29.0,25.0,-100.00,ENE,62,0.0,0.0,83,0.00,,,0.01,0.000000,,2013-03-27 06:42:00,
2013-03-27 00:52:00,29.0,26.0,-100.00,SSW,208,0.0,0.0,87,0.00,,,-99.99,0.000000,,2013-03-27 06:52:00,
2013-03-27 01:12:00,29.0,26.0,-100.00,SSW,208,0.0,0.0,87,0.00,,,-99.99,0.000000,,2013-03-27 07:12:00,
2013-03-27 01:22:00,29.0,26.0,-100.00,SSW,208,0.0,0.0,87,0.00,,,-99.99,0.000000,,2013-03-27 07:22:00,
2013-03-27 01:32:00,29.0,26.0,-100.00,SSW,208,0.0,0.0,87,0.00,,,-99.99,0.000000,,2013-03-27 07:32:00,
2013-03-27 01:42:00,29.0,26.0,-100.00,SSW,208,0.0,0.0,87,0.00,,,-99.99,0.000000,,2013-03-27 07:42:00,
2013-03-27 02:12:00,29.0,25.0,-100.00,SSW,203,0.0,2.0,86,0.00,,,0.01,0.000000,,2013-03-27 08:12:00,
2013-03-27 02:22:00,29.0,25.0,-100.00,SSW,203,0.0,2.0,86,0.00,,,0.01,0.000000,,2013-03-27 08:22:00,
2013-03-27 02:32:00,29.0,25.0,-100.00,SSW,203,0.0,2.0,86,0.00,,,0.01,0.000000,,2013-03-27 08:32:00,
2013-03-27 02:43:00,29.0,25.0,-100.00,SSW,203,0.0,2.0,86,0.00,,,0.01,0.000000,,2013-03-27 08:43:00,
2013-03-27 02:51:00,29.0,25.0,-100.00,SSW,203,0.0,2.0,86,0.00,,,0.01,0.000000,,2013-03-27 08:51:00,
2013-03-27 02:52:00,29.0,26.0,-100.00,SW,230,0.0,0.0,88,0.00,,,0.01,0.000000,,2013-03-27 08:52:00,
2013-03-27 03:12:00,29.0,26.0,-100.00,SW,230,0.0,0.0,88,0.00,,,0.01,0.000000,,2013-03-27 09:12:00,
2013-03-27 03:22:00,29.0,26.0,-100.00,SW,230,0.0,0.0,88,0.00,,,0.01,0.000000,,2013-03-27 09:22:00,
2013-03-27 03:32:00,29.0,26.0,-100.00,SW,230,0.0,0.0,88,0.00,,,0.01,0.000000,,2013-03-27 09:32:00,
2013-03-27 03:42:00,29.0,26.0,-100.00,SW,230,0.0,0.0,88,0.00,,,0.01,0.000000,,2013-03-27 09:42:00,
2013-03-27 03:52:00,28.0,27.0,-100.00,ENE,68,0.0,0.0,94,0.00,,,0.01,0.000000,,2013-03-27 09:52:00,
2013-03-27 04:12:00,28.0,27.0,-100.00,ENE,68,0.0,0.0,94,0.00,,,0.01,0.000000,,2013-03-27 10:12:00,
2013-03-27 04:22:00,28.0,27.0,-100.00,ENE,68,0.0,0.0,94,0.00,,,0.01,0.000000,,2013-03-27 10:22:00,
2013-03-27 04:32:00,28.0,27.0,-100.00,ENE,68,0.0,0.0,94,0.00,,,0.01,0.000000,,2013-03-27 10:32:00,
2013-03-27 04:42:00,28.0,27.0,-100.00,ENE,68,0.0,0.0,94,0.00,,,0.01,0.000000,,2013-03-27 10:42:00,
2013-03-27 04:52:00,29.0,27.0,-100.00,WSW,251,0.0,0.0,94,0.00,,,0.01,0.000000,,2013-03-27 10:52:00,
2013-03-27 05:12:00,29.0,27.0,-100.00,WSW,251,0.0,0.0,94,0.00,,,0.01,0.000000,,2013-03-27 11:12:00,
2013-03-27 05:22:00,29.0,27.0,-100.00,WSW,251,0.0,0.0,94,0.00,,,0.01,0.000000,,2013-03-27 11:22:00,
2013-03-27 05:32:00,29.0,27.0,-100.00,WSW,251,0.0,0.0,94,0.00,,,0.01,0.000000,,2013-03-27 11:32:00,
2013-03-27 05:42:00,29.0,27.0,-100.00,WSW,251,0.0,0.0,94,0.00,,,0.01,0.000000,,2013-03-27 11:42:00,
2013-03-27 06:22:00,28.0,27.0,-100.00,WNW,296,0.0,0.0,97,0.00,,,0.01,0.000000,,2013-03-27 12:22:00,
2013-03-27 06:32:00,28.0,27.0,-100.00,WNW,296,0.0,0.0,97,0.00,,,0.01,0.000000,,2013-03-27 12:32:00,
2013-03-27 06:42:00,28.0,27.0,-100.00,WNW,296,0.0,0.0,97,0.00,,,0.01,0.000000,,2013-03-27 12:42:00,
2013-03-27 06:51:00,28.0,27.0,-100.00,WNW,296,0.0,0.0,97,0.00,,,0.01,0.000000,,2013-03-27 12:51:00,
2013-03-27 06:52:00,27.0,27.0,-100.00,NE,45,0.0,0.0,100,0.00,,,0.01,0.000000,,2013-03-27 12:52:00,
2013-03-27 07:12:00,27.0,27.0,-100.00,NE,45,0.0,0.0,100,0.00,,,0.01,0.000000,,2013-03-27 13:12:00,
2013-03-27 07:22:00,27.0,27.0,-100.00,NE,45,0.0,0.0,100,0.00,,,0.01,0.000000,,2013-03-27 13:22:00,
2013-03-27 07:32:00,27.0,27.0,-100.00,NE,45,0.0,0.0,100,0.00,,,0.01,0.000000,,2013-03-27 13:32:00,
2013-03-27 07:42:00,27.0,27.0,-100.00,NE,45,0.0,0.0,100,0.00,,,0.01,0.000000,,2013-03-27 13:42:00,
2013-03-27 08:12:00,28.0,27.0,-100.00,SW,225,0.0,2.0,95,0.00,,,0.01,8.000000,,2013-03-27 14:12:00,
2013-03-27 08:22:00,28.0,27.0,-100.00,SW,225,0.0,2.0,95,0.00,,,0.01,8.000000,,2013-03-27 14:22:00,
2013-03-27 08:32:00,28.0,27.0,-100.00,SW,225,0.0,2.0,95,0.00,,,0.01,8.000000,,2013-03-27 14:32:00,
2013-03-27 08:42:00,28.0,27.0,-100.00,SW,225,0.0,2.0,95,0.00,,,0.01,8.000000,,2013-03-27 14:42:00,
2013-03-27 08:51:00,28.0,27.0,-100.00,SW,225,0.0,2.0,95,0.00,,,0.01,8.000000,,2013-03-27 14:51:00,
2013-03-27 08:52:00,30.0,24.0,-100.00,NW,326,0.0,2.0,78,0.00,,,0.01,65.000000,,2013-03-27 14:52:00,
2013-03-27 09:12:00,30.0,24.0,-100.00,NW,326,0.0,2.0,78,0.00,,,0.01,65.000000,,2013-03-27 15:12:00,
2013-03-27 09:22:00,30.0,24.0,-100.00,NW,326,0.0,2.0,78,0.00,,,0.01,65.000000,,2013-03-27 15:22:00,
2013-03-27 09:32:00,30.0,24.0,-100.00,NW,326,0.0,2.0,78,0.00,,,0.01,65.000000,,2013-03-27 15:32:00,
2013-03-27 09:42:00,30.0,24.0,-100.00,NW,326,0.0,2.0,78,0.00,,,0.01,65.000000,,2013-03-27 15:42:00,
2013-03-27 12:12:00,37.0,24.0,-100.00,West,261,0.0,6.0,60,-99.99,,,0.01,366.000000,,2013-03-27 18:12:00,
2013-03-27 12:22:00,37.0,24.0,-100.00,West,261,0.0,6.0,60,-99.99,,,0.01,366.000000,,2013-03-27 18:22:00,
2013-03-27 12:32:00,37.0,24.0,-100.00,West,261,0.0,6.0,60,-99.99,,,0.01,366.000000,,2013-03-27 18:32:00,
2013-03-27 12:42:00,37.0,24.0,-100.00,West,261,0.0,6.0,60,-99.99,,,0.01,366.000000,,2013-03-27 18:42:00,
2013-03-27 12:52:00,41.0,23.0,-100.00,WNW,288,1.0,5.0,48,0.00,,,0.01,398.000000,,2013-03-27 18:52:00,
2013-03-27 13:42:00,41.0,23.0,-100.00,WNW,288,1.0,5.0,48,0.00,,,0.01,398.000000,,2013-03-27 19:42:00,
2013-03-27 13:52:00,41.0,22.0,-100.00,West,278,3.0,8.0,47,0.00,,,0.00,471.000000,,2013-03-27 19:52:00,
2013-03-27 14:12:00,41.0,22.0,-100.00,West,278,3.0,8.0,47,0.00,,,0.00,471.000000,,2013-03-27 20:12:00,
2013-03-27 14:22:00,41.0,22.0,-100.00,West,278,3.0,8.0,47,0.00,,,0.00,471.000000,,2013-03-27 20:22:00,
2013-03-27 14:32:00,41.0,22.0,-100.00,West,278,3.0,8.0,47,0.00,,,0.00,471.000000,,2013-03-27 20:32:00,
2013-03-27 14:42:00,41.0,22.0,-100.00,West,278,3.0,8.0,47,0.00,,,0.00,471.000000,,2013-03-27 20:42:00,
2013-03-27 14:52:00,42.0,23.0,-100.00,West,272,6.0,15.0,47,0.00,,,0.00,527.000000,,2013-03-27 20:52:00,
2013-03-27 15:12:00,42.0,23.0,-100.00,West,272,6.0,15.0,47,0.00,,,0.00,527.000000,,2013-03-27 21:12:00,
2013-03-27 15:22:00,42.0,23.0,-100.00,West,272,6.0,15.0,47,0.00,,,0.00,527.000000,,2013-03-27 21:22:00,
2013-03-27 15:32:00,42.0,23.0,-100.00,West,272,6.0,15.0,47,0.00,,,0.00,527.000000,,2013-03-27 21:32:00,
2013-03-27 15:42:00,42.0,23.0,-100.00,West,272,6.0,15.0,47,0.00,,,0.00,527.000000,,2013-03-27 21:42:00,
2013-03-27 15:52:00,42.0,25.0,-100.00,WNW,296,6.0,14.0,50,0.00,,,0.00,462.000000,,2013-03-27 21:52:00,
2013-03-27 16:12:00,42.0,25.0,-100.00,WNW,296,6.0,14.0,50,0.00,,,0.00,462.000000,,2013-03-27 22:12:00,
2013-03-27 16:23:00,42.0,25.0,-100.00,WNW,296,6.0,14.0,50,0.00,,,0.00,462.000000,,2013-03-27 22:23:00,
2013-03-27 16:32:00,42.0,25.0,-100.00,WNW,296,6.0,14.0,50,0.00,,,0.00,462.000000,,2013-03-27 22:32:00,
2013-03-27 16:42:00,42.0,25.0,-100.00,WNW,296,6.0,14.0,50,0.00,,,0.00,462.000000,,2013-03-27 22:42:00,
2013-03-27 17:12:00,42.0,22.0,-100.00,West,274,5.0,12.0,44,0.00,,,0.00,407.000000,,2013-03-27 23:12:00,
2013-03-27 17:22:00,42.0,22.0,-100.00,West,274,5.0,12.0,44,0.00,,,0.00,407.000000,,2013-03-27 23:22:00,
2013-03-27 17:32:00,42.0,22.0,-100.00,West,274,5.0,12.0,44,0.00,,,0.00,407.000000,,2013-03-27 23:32:00,
2013-03-27 17:42:00,42.0,22.0,-100.00,West,274,5.0,12.0,44,0.00,,,0.00,407.000000,,2013-03-27 23:42:00,
2013-03-27 17:51:00,42.0,22.0,-100.00,West,274,5.0,12.0,44,0.00,,,0.00,407.000000,,2013-03-27 23:51:00,
2013-03-27 17:52:00,39.0,20.0,-100.00,WNW,287,4.0,11.0,46,0.00,,,0.00,262.000000,,2013-03-27 23:52:00,
2013-03-27 18:22:00,39.0,20.0,-100.00,WNW,287,4.0,11.0,46,0.00,,,0.00,262.000000,,2013-03-28 00:22:00,
2013-03-27 18:32:00,39.0,20.0,-100.00,WNW,287,4.0,11.0,46,0.00,,,0.00,262.000000,,2013-03-28 00:32:00,
2013-03-27 18:42:00,39.0,20.0,-100.00,WNW,287,4.0,11.0,46,0.00,,,0.00,262.000000,,2013-03-28 00:42:00,